createdAt,value
2019-01-25T00:00:02.404Z,-4.34
2019-01-25T00:03:20.792Z,-4.41
2019-01-25T00:06:37.601Z,-4.40
2019-01-25T00:09:43.056Z,-4.42
2019-01-25T00:13:00.385Z,-4.38
2019-01-25T00:16:20.356Z,-4.37
2019-01-25T00:19:25.792Z,-4.35
2019-01-25T00:26:29.500Z,-4.39
2019-01-25T00:29:46.325Z,-4.41
2019-01-25T00:33:05.090Z,-4.35
2019-01-25T00:36:36.817Z,-4.37
2019-01-25T00:39:53.635Z,-4.38
2019-01-25T00:49:56.991Z,-4.46
2019-01-25T00:53:15.085Z,-4.41
2019-01-25T00:56:33.772Z,-4.44
2019-01-25T00:59:50.412Z,-4.44
2019-01-25T01:03:07.797Z,-4.44
2019-01-25T01:06:13.131Z,-4.35
2019-01-25T01:09:30.003Z,-4.36
2019-01-25T01:12:47.069Z,-4.32
2019-01-25T01:15:52.527Z,-4.40
2019-01-25T01:19:09.646Z,-4.41
2019-01-25T01:22:26.702Z,-4.36
2019-01-25T01:25:44.223Z,-4.45
2019-01-25T01:29:01.386Z,-4.60
2019-01-25T01:32:20.526Z,-4.59
2019-01-25T01:35:26.755Z,-4.49
2019-01-25T01:38:51.072Z,-4.45
2019-01-25T01:42:07.816Z,-4.50
2019-01-25T01:45:25.365Z,-4.40
2019-01-25T01:48:44.141Z,-4.36
2019-01-25T01:51:49.566Z,-4.41
2019-01-25T01:55:14.182Z,-4.40
2019-01-25T02:02:24.885Z,-4.39
2019-01-25T02:05:29.082Z,-4.48
2019-01-25T02:08:47.510Z,-4.46
2019-01-25T02:11:52.992Z,-4.55
2019-01-25T02:14:58.225Z,-4.57
2019-01-25T02:18:15.414Z,-4.56
2019-01-25T02:21:35.166Z,-4.53
2019-01-25T02:24:52.255Z,-4.48
2019-01-25T02:28:09.287Z,-4.46
2019-01-25T02:31:26.552Z,-4.55
2019-01-25T02:34:43.775Z,-4.51
2019-01-25T02:38:00.597Z,-4.53
2019-01-25T02:41:17.508Z,-4.50
2019-01-25T02:44:23.043Z,-4.60
2019-01-25T02:47:40.216Z,-4.50
2019-01-25T02:51:00.471Z,-4.44
2019-01-25T02:54:20.716Z,-4.38
2019-01-25T02:57:36.699Z,-4.43
2019-01-25T03:00:53.475Z,-4.45
2019-01-25T03:03:58.825Z,-4.48
2019-01-25T03:07:15.747Z,-4.51
2019-01-25T03:10:32.717Z,-4.53
2019-01-25T03:13:38.077Z,-4.50
2019-01-25T03:16:43.300Z,-4.52
2019-01-25T03:20:01.945Z,-4.52
2019-01-25T03:27:04.005Z,-4.55
2019-01-25T03:30:21.337Z,-4.51
2019-01-25T03:33:41.250Z,-4.48
2019-01-25T03:36:58.264Z,-4.44
2019-01-25T03:40:03.626Z,-4.46
2019-01-25T03:43:20.973Z,-4.54
2019-01-25T03:46:38.454Z,-4.52
2019-01-25T03:49:43.885Z,-4.50
2019-01-25T03:53:08.281Z,-4.49
2019-01-25T03:56:27.944Z,-4.42
2019-01-25T03:59:44.636Z,-4.52
2019-01-25T04:03:03.446Z,-4.51
2019-01-25T04:06:08.715Z,-4.51
2019-01-25T04:09:25.402Z,-4.51
2019-01-25T04:12:42.917Z,-4.42
2019-01-25T04:16:00.159Z,-4.44
2019-01-25T04:19:08.089Z,-4.46
2019-01-25T04:22:13.530Z,-4.53
2019-01-25T04:25:20.926Z,-4.60
2019-01-25T04:28:26.336Z,-4.58
2019-01-25T04:31:43.686Z,-4.58
2019-01-25T04:35:00.582Z,-4.52
2019-01-25T04:38:05.905Z,-4.49
2019-01-25T04:41:12.025Z,-4.59
2019-01-25T04:44:34.905Z,-4.64
2019-01-25T04:47:40.160Z,-4.67
2019-01-25T04:50:45.445Z,-4.72
2019-01-25T04:53:50.788Z,-4.70
2019-01-25T04:57:07.541Z,-4.52
2019-01-25T05:00:24.579Z,-4.54
2019-01-25T05:03:29.864Z,-4.65
2019-01-25T05:06:47.166Z,-4.59
2019-01-25T05:10:04.735Z,-4.65
2019-01-25T05:13:21.817Z,-4.68
2019-01-25T05:16:39.369Z,-4.51
2019-01-25T05:19:44.696Z,-4.50
2019-01-25T05:23:01.099Z,-4.58
2019-01-25T05:26:18.126Z,-4.55
2019-01-25T05:29:34.599Z,-4.61
2019-01-25T05:32:53.933Z,-4.66
2019-01-25T05:35:59.265Z,-4.63
2019-01-25T05:39:23.550Z,-4.72
2019-01-25T05:42:40.994Z,-4.67
2019-01-25T05:45:58.507Z,-4.57
2019-01-25T05:49:17.849Z,-4.63
2019-01-25T05:52:35.489Z,-4.65
2019-01-25T05:55:40.945Z,-4.61
2019-01-25T05:59:21.726Z,-4.72
2019-01-25T06:02:18.021Z,-4.65
2019-01-25T06:05:35.249Z,-4.61
2019-01-25T06:08:52.411Z,-4.64
2019-01-25T06:12:09.494Z,-4.61
2019-01-25T06:15:27.805Z,-4.39
2019-01-25T06:18:44.739Z,-4.48
2019-01-25T06:22:05.394Z,-4.50
2019-01-25T06:25:21.392Z,-4.49
2019-01-25T06:28:26.771Z,-4.48
2019-01-25T06:31:43.525Z,-4.55
2019-01-25T06:35:03.040Z,-4.54
2019-01-25T06:38:21.610Z,-4.52
2019-01-25T06:41:43.983Z,-4.57
2019-01-25T06:44:45.486Z,-4.66
2019-01-25T06:48:09.974Z,-4.67
2019-01-25T06:51:29.906Z,-4.66
2019-01-25T06:54:47.229Z,-4.63
2019-01-25T06:58:24.315Z,-4.63
2019-01-25T07:01:48.810Z,-4.61
2019-01-25T07:04:54.169Z,-4.66
2019-01-25T07:12:07.299Z,-4.61
2019-01-25T07:15:28.361Z,-4.59
2019-01-25T07:18:47.063Z,-4.57
2019-01-25T07:22:04.508Z,-4.56
2019-01-25T07:25:10.575Z,-4.54
2019-01-25T07:28:34.850Z,-4.45
2019-01-25T07:31:40.128Z,-4.43
2019-01-25T07:34:45.446Z,-4.52
2019-01-25T07:37:50.718Z,-4.53
2019-01-25T07:40:56.018Z,-4.49
2019-01-25T07:44:01.295Z,-4.49
2019-01-25T07:47:25.840Z,-4.32
2019-01-25T07:50:50.265Z,-4.32
2019-01-25T07:54:08.594Z,-4.30
2019-01-25T07:57:13.965Z,-4.35
2019-01-25T08:00:34.032Z,-4.30
2019-01-25T08:03:39.361Z,-4.36
2019-01-25T08:06:56.214Z,-4.32
2019-01-25T08:10:12.964Z,-4.17
2019-01-25T08:13:32.876Z,-4.30
2019-01-25T08:16:38.360Z,-4.36
2019-01-25T08:19:55.359Z,-4.21
2019-01-25T08:23:12.539Z,-4.30
2019-01-25T08:26:29.631Z,-4.21
2019-01-25T08:29:36.471Z,-3.79
2019-01-25T08:33:00.831Z,-3.96
2019-01-25T08:36:17.478Z,-3.98
2019-01-25T08:39:34.532Z,-4.09
2019-01-25T08:42:54.633Z,-3.95
2019-01-25T08:46:11.370Z,-3.78
2019-01-25T08:49:16.788Z,-3.84
2019-01-25T08:52:41.218Z,-3.81
2019-01-25T08:55:58.002Z,-3.70
2019-01-25T08:59:18.955Z,-3.64
2019-01-25T09:02:35.830Z,-3.92
2019-01-25T09:05:52.638Z,-3.69
2019-01-25T09:09:09.881Z,-3.63
2019-01-25T09:12:15.153Z,-3.50
2019-01-25T09:15:41.783Z,-3.48
2019-01-25T09:18:58.927Z,-3.41
2019-01-25T09:22:18.804Z,-3.52
2019-01-25T09:25:35.944Z,-3.11
2019-01-25T09:28:41.248Z,-3.40
2019-01-25T09:32:05.662Z,-3.25
2019-01-25T09:35:22.773Z,-3.11
2019-01-25T09:38:39.218Z,-3.15
2019-01-25T09:41:56.520Z,-3.23
2019-01-25T09:45:13.693Z,-3.30
2019-01-25T09:48:19.128Z,-2.90
2019-01-25T09:51:43.427Z,-2.65
2019-01-25T09:55:00.549Z,-2.49
2019-01-25T09:58:16.957Z,-2.69
2019-01-25T10:04:39.724Z,-3.01
2019-01-25T10:07:56.762Z,-3.13
2019-01-25T10:11:03.735Z,-2.97
2019-01-25T10:14:28.045Z,-2.92
2019-01-25T10:17:45.554Z,-3.06
2019-01-25T10:21:02.820Z,-2.79
2019-01-25T10:24:19.781Z,-2.74
2019-01-25T10:27:36.706Z,-2.71
2019-01-25T10:30:53.705Z,-2.88
2019-01-25T10:34:12.355Z,-2.84
2019-01-25T10:37:29.793Z,-2.58
2019-01-25T10:40:35.168Z,-2.96
2019-01-25T10:43:52.573Z,-3.35
2019-01-25T10:47:11.545Z,-3.07
2019-01-25T10:54:05.155Z,-2.79
2019-01-25T10:57:10.780Z,-3.23
2019-01-25T11:00:27.709Z,-3.26
2019-01-25T11:03:49.264Z,-3.62
2019-01-25T11:06:47.812Z,-3.50
2019-01-25T11:10:12.829Z,-3.35
2019-01-25T11:13:20.505Z,-3.35
2019-01-25T11:16:25.790Z,-3.38
2019-01-25T11:19:31.135Z,-3.42
2019-01-25T11:22:36.435Z,-3.17
2019-01-25T11:25:42.060Z,-3.26
2019-01-25T11:28:47.337Z,-3.18
2019-01-25T11:31:52.788Z,-2.87
2019-01-25T11:34:58.148Z,-2.52
2019-01-25T11:38:03.434Z,-2.81
2019-01-25T11:41:13.428Z,-3.20
2019-01-25T11:44:18.747Z,-3.13
2019-01-25T11:47:24.179Z,-3.13
2019-01-25T11:50:29.399Z,-3.02
2019-01-25T11:53:35.963Z,-2.82
2019-01-25T11:56:41.366Z,-2.94
2019-01-25T11:59:46.687Z,-2.68
2019-01-25T12:02:52.154Z,-2.64
2019-01-25T12:05:57.403Z,-2.53
2019-01-25T12:09:02.832Z,-2.63
2019-01-25T12:12:10.825Z,-2.60
2019-01-25T12:15:17.218Z,-2.51
2019-01-25T12:18:22.559Z,-2.48
2019-01-25T12:21:30.725Z,-2.54
2019-01-25T12:24:36.058Z,-2.35
2019-01-25T12:27:41.514Z,-2.34
2019-01-25T12:30:46.874Z,-2.23
2019-01-25T12:33:52.234Z,-2.44
2019-01-25T12:36:57.709Z,-2.30
2019-01-25T12:40:03.692Z,-2.01
2019-01-25T12:43:08.970Z,-2.00
2019-01-25T12:46:14.355Z,-2.06
2019-01-25T12:49:19.927Z,-2.02
2019-01-25T12:52:26.372Z,-2.39
2019-01-25T12:55:32.658Z,-2.29
2019-01-25T12:58:38.277Z,-2.20
2019-01-25T13:01:43.593Z,-2.35
2019-01-25T13:04:48.977Z,-2.42
2019-01-25T13:07:54.308Z,-2.39
2019-01-25T13:10:59.722Z,-2.41
2019-01-25T13:14:05.103Z,-2.52
2019-01-25T13:17:10.387Z,-2.39
2019-01-25T13:20:19.159Z,-2.35
2019-01-25T13:23:24.475Z,-2.45
2019-01-25T13:26:29.778Z,-2.38
2019-01-25T13:29:35.113Z,-2.37
2019-01-25T13:32:40.504Z,-2.07
2019-01-25T13:35:45.846Z,-2.17
2019-01-25T13:38:51.233Z,-2.08
2019-01-25T13:41:56.498Z,-2.02
2019-01-25T13:45:01.746Z,-2.09
2019-01-25T13:48:07.132Z,-2.01
2019-01-25T13:51:12.398Z,-1.87
2019-01-25T13:54:17.742Z,-1.84
2019-01-25T13:57:23.102Z,-1.95
2019-01-25T14:00:32.914Z,-1.93
2019-01-25T14:03:38.251Z,-1.72
2019-01-25T14:06:44.987Z,-1.63
2019-01-25T14:09:50.289Z,-1.71
2019-01-25T14:12:56.583Z,-1.83
2019-01-25T14:16:01.918Z,-1.82
2019-01-25T14:19:07.239Z,-1.69
2019-01-25T14:22:12.622Z,-1.82
2019-01-25T14:25:17.918Z,-2.03
2019-01-25T14:28:23.209Z,-1.77
2019-01-25T14:31:28.574Z,-1.77
2019-01-25T14:34:34.012Z,-1.84
2019-01-25T14:37:39.332Z,-2.00
2019-01-25T14:40:44.667Z,-1.93
2019-01-25T14:43:54.388Z,-2.03
2019-01-25T14:46:57.058Z,-2.23
2019-01-25T14:50:02.319Z,-2.04
2019-01-25T14:53:08.673Z,-1.90
2019-01-25T14:56:15.271Z,-1.86
2019-01-25T14:59:20.708Z,-1.90
2019-01-25T15:02:26.101Z,-1.84
2019-01-25T15:05:31.472Z,-1.86
2019-01-25T15:08:36.757Z,-1.94
2019-01-25T15:11:42.085Z,-1.91
2019-01-25T15:14:47.404Z,-1.91
2019-01-25T15:17:52.850Z,-2.04
2019-01-25T15:20:58.162Z,-1.95
2019-01-25T15:24:03.486Z,-1.98
2019-01-25T15:27:08.762Z,-1.86
2019-01-25T15:30:19.897Z,-1.85
2019-01-25T15:33:25.178Z,-1.99
2019-01-25T15:36:30.432Z,-1.91
2019-01-25T15:39:35.713Z,-1.84
2019-01-25T15:42:41.045Z,-1.85
2019-01-25T15:45:46.418Z,-1.93
2019-01-25T15:48:51.680Z,-1.85
2019-01-25T15:51:56.967Z,-1.94
2019-01-25T15:55:02.278Z,-1.86
2019-01-25T15:58:08.643Z,-1.84
2019-01-25T16:01:13.857Z,-1.78
2019-01-25T16:04:20.334Z,-1.77
2019-01-25T16:07:25.642Z,-1.76
2019-01-25T16:10:31.018Z,-1.75
2019-01-25T16:13:36.342Z,-1.72
2019-01-25T16:16:41.661Z,-1.63
2019-01-25T16:19:46.939Z,-1.65
2019-01-25T16:22:52.392Z,-1.65
2019-01-25T16:25:57.832Z,-1.67
2019-01-25T16:29:03.502Z,-1.60
2019-01-25T16:32:08.887Z,-1.73
2019-01-25T16:35:14.972Z,-1.63
2019-01-25T16:38:20.308Z,-1.62
2019-01-25T16:41:25.632Z,-1.61
2019-01-25T16:44:30.901Z,-1.48
2019-01-25T16:47:36.291Z,-1.48
2019-01-25T16:50:41.837Z,-1.46
2019-01-25T16:53:47.247Z,-1.45
2019-01-25T16:56:52.515Z,-1.49
2019-01-25T16:59:57.824Z,-1.39
2019-01-25T17:03:03.217Z,-1.39
2019-01-25T17:06:08.568Z,-1.36
2019-01-25T17:09:15.923Z,-1.34
2019-01-25T17:12:21.337Z,-1.32
2019-01-25T17:15:28.968Z,-1.17
2019-01-25T17:18:34.402Z,-1.16
2019-01-25T17:21:39.675Z,-1.01
2019-01-25T17:24:44.988Z,-1.10
2019-01-25T17:27:50.267Z,-1.29
2019-01-25T17:30:56.475Z,-1.06
2019-01-25T17:34:01.887Z,-0.88
2019-01-25T17:37:07.248Z,-1.11
2019-01-25T17:40:14.802Z,-1.02
2019-01-25T17:43:20.195Z,-1.00
2019-01-25T17:46:25.630Z,-0.81
2019-01-25T17:49:31.158Z,-0.75
2019-01-25T17:52:36.405Z,-0.80
2019-01-25T17:55:41.703Z,-0.68
2019-01-25T17:58:47.055Z,-0.75
2019-01-25T18:01:52.426Z,-0.82
2019-01-25T18:04:57.726Z,-0.85
2019-01-25T18:08:03.015Z,-0.53
2019-01-25T18:11:08.361Z,-0.50
2019-01-25T18:14:13.730Z,-0.50
2019-01-25T18:17:19.049Z,-0.45
2019-01-25T18:20:24.380Z,-0.51
2019-01-25T18:23:29.772Z,-0.55
2019-01-25T18:26:35.018Z,-0.64
2019-01-25T18:29:50.627Z,-0.53
2019-01-25T18:32:55.947Z,-0.39
2019-01-25T18:36:01.262Z,-0.52
2019-01-25T18:39:09.033Z,-0.50
2019-01-25T18:42:14.416Z,-0.51
2019-01-25T18:45:19.765Z,-0.31
2019-01-25T18:48:25.056Z,-0.23
2019-01-25T18:51:30.348Z,-0.23
2019-01-25T18:54:35.755Z,-0.27
2019-01-25T18:57:41.037Z,-0.24
2019-01-25T19:00:46.346Z,-0.13
2019-01-25T19:03:51.646Z,-0.29
2019-01-25T19:06:56.870Z,-0.11
2019-01-25T19:10:02.226Z,-0.30
2019-01-25T19:13:07.582Z,-0.07
2019-01-25T19:16:12.926Z,-0.16
2019-01-25T19:19:18.228Z,-0.27
2019-01-25T19:22:23.483Z,-0.28
2019-01-25T19:25:28.765Z,-0.19
2019-01-25T19:28:34.081Z,-0.16
2019-01-25T19:31:39.342Z,-0.26
2019-01-25T19:34:47.431Z,-0.08
2019-01-25T19:37:52.740Z,0.05
2019-01-25T19:40:58.088Z,0.13
2019-01-25T19:44:03.492Z,0.08
2019-01-25T19:47:08.793Z,0.03
2019-01-25T19:50:15.785Z,-0.01
2019-01-25T19:53:21.124Z,0.02
2019-01-25T19:56:26.531Z,0.02
2019-01-25T19:59:31.962Z,0.14
2019-01-25T20:02:37.311Z,0.13
2019-01-25T20:05:42.610Z,0.20
2019-01-25T20:08:47.922Z,0.25
2019-01-25T20:11:53.275Z,0.17
2019-01-25T20:14:58.609Z,0.24
2019-01-25T20:18:04.023Z,0.30
2019-01-25T20:21:09.465Z,0.31
2019-01-25T20:24:15.665Z,0.38
2019-01-25T20:27:21.176Z,0.46
2019-01-25T20:30:28.632Z,0.47
2019-01-25T20:33:34.945Z,0.54
2019-01-25T20:36:41.096Z,0.55
2019-01-25T20:39:46.499Z,0.52
2019-01-25T20:42:51.818Z,0.49
2019-01-25T20:45:57.516Z,0.49
2019-01-25T20:49:03.653Z,0.55
2019-01-25T20:52:08.980Z,0.55
2019-01-25T20:55:15.927Z,0.58
2019-01-25T20:58:21.298Z,0.63
2019-01-25T21:01:27.026Z,0.59
2019-01-25T21:04:32.326Z,0.57
2019-01-25T21:07:37.856Z,0.61
2019-01-25T21:10:46.431Z,0.58
2019-01-25T21:13:54.045Z,0.63
2019-01-25T21:16:59.401Z,0.64
2019-01-25T21:20:05.720Z,0.72
2019-01-25T21:23:11.041Z,0.67
2019-01-25T21:26:16.351Z,0.72
2019-01-25T21:29:21.595Z,0.76
2019-01-25T21:32:27.565Z,0.67
2019-01-25T21:35:32.974Z,0.73
2019-01-25T21:38:40.711Z,0.76
2019-01-25T21:41:46.081Z,0.73
2019-01-25T21:44:51.559Z,0.83
2019-01-25T21:47:57.303Z,0.88
2019-01-25T21:51:04.948Z,0.84
2019-01-25T21:54:10.360Z,0.81
2019-01-25T21:57:15.857Z,0.81
2019-01-25T22:00:23.324Z,0.82
2019-01-25T22:03:28.689Z,0.81
2019-01-25T22:06:34.818Z,0.86
2019-01-25T22:09:40.187Z,0.84
2019-01-25T22:12:45.964Z,0.87
2019-01-25T22:15:51.365Z,0.86
2019-01-25T22:18:56.712Z,0.87
2019-01-25T22:22:02.559Z,0.89
2019-01-25T22:25:10.124Z,0.88
2019-01-25T22:28:15.515Z,0.87
2019-01-25T22:31:21.256Z,0.93
2019-01-25T22:34:35.479Z,0.91
2019-01-25T22:37:40.792Z,0.94
2019-01-25T22:40:46.104Z,0.99
2019-01-25T22:43:54.894Z,0.93
2019-01-25T22:47:01.218Z,0.96
2019-01-25T22:50:16.177Z,0.94
2019-01-25T22:53:21.262Z,0.97
2019-01-25T22:56:26.642Z,1.03
2019-01-25T22:59:32.191Z,1.05
2019-01-25T23:02:37.848Z,0.99
2019-01-25T23:06:18.207Z,1.03
2019-01-25T23:09:41.703Z,1.06
2019-01-25T23:12:47.085Z,1.04
2019-01-25T23:15:52.487Z,1.02
2019-01-25T23:18:57.740Z,1.08
2019-01-25T23:22:04.221Z,1.11
2019-01-25T23:25:10.497Z,1.11
2019-01-25T23:28:15.801Z,1.21
2019-01-25T23:31:21.034Z,1.16
2019-01-25T23:34:26.339Z,1.09
2019-01-25T23:37:31.606Z,1.11
2019-01-25T23:40:36.897Z,1.18
2019-01-25T23:43:42.114Z,1.22
2019-01-25T23:46:47.309Z,1.21
2019-01-25T23:49:52.611Z,1.25
2019-01-25T23:52:57.935Z,1.18
2019-01-25T23:56:03.216Z,1.21
2019-01-25T23:59:08.530Z,1.26
